createdAt,value
2018-06-09T00:00:30.870Z,50.45
2018-06-09T00:01:34.364Z,51.23
2018-06-09T00:02:37.508Z,51.40
2018-06-09T00:03:40.984Z,51.25
2018-06-09T00:04:44.364Z,51.83
2018-06-09T00:05:48.765Z,52.03
2018-06-09T00:06:52.191Z,51.88
2018-06-09T00:07:55.577Z,48.63
2018-06-09T00:08:58.963Z,51.10
2018-06-09T00:10:03.020Z,52.25
2018-06-09T00:11:07.409Z,50.08
2018-06-09T00:12:10.823Z,51.80
2018-06-09T00:13:14.227Z,52.10
2018-06-09T00:14:17.610Z,51.50
2018-06-09T00:15:22.388Z,48.50
2018-06-09T00:16:26.903Z,50.05
2018-06-09T00:17:30.388Z,49.83
2018-06-09T00:18:33.462Z,50.10
2018-06-09T00:19:36.576Z,50.83
2018-06-09T00:20:41.525Z,50.10
2018-06-09T00:21:44.631Z,50.48
2018-06-09T00:22:47.734Z,49.45
2018-06-09T00:23:57.537Z,51.08
2018-06-09T00:25:00.935Z,50.90
2018-06-09T00:26:05.275Z,53.00
2018-06-09T00:27:08.722Z,52.10
2018-06-09T00:28:12.123Z,51.50
2018-06-09T00:29:15.250Z,51.20
2018-06-09T00:30:19.721Z,52.08
2018-06-09T00:31:23.683Z,55.52
2018-06-09T00:32:27.059Z,54.80
2018-06-09T00:33:30.470Z,54.00
2018-06-09T00:34:33.860Z,52.93
2018-06-09T00:35:37.566Z,53.68
2018-06-09T00:36:41.000Z,52.88
2018-06-09T00:37:44.383Z,54.77
2018-06-09T00:38:47.787Z,55.85
2018-06-09T00:39:54.048Z,54.38
2018-06-09T00:40:58.288Z,55.12
2018-06-09T00:42:01.696Z,53.90
2018-06-09T00:43:05.080Z,52.00
2018-06-09T00:44:08.499Z,55.85
2018-06-09T00:45:13.244Z,53.70
2018-06-09T00:46:17.055Z,55.95
2018-06-09T00:47:20.811Z,55.60
2018-06-09T00:48:24.198Z,54.77
2018-06-09T00:49:27.595Z,53.48
2018-06-09T00:50:32.017Z,55.33
2018-06-09T00:51:35.427Z,52.25
2018-06-09T00:52:45.528Z,53.95
2018-06-09T00:53:48.912Z,53.10
2018-06-09T00:54:52.322Z,55.78
2018-06-09T00:56:01.580Z,55.63
2018-06-09T00:57:05.143Z,55.23
2018-06-09T00:58:08.234Z,54.50
2018-06-09T00:59:11.335Z,54.18
2018-06-09T01:00:15.943Z,55.00
2018-06-09T01:01:20.455Z,54.65
2018-06-09T01:02:23.882Z,53.95
2018-06-09T01:03:27.290Z,54.13
2018-06-09T01:04:30.695Z,53.95
2018-06-09T01:05:35.247Z,54.50
2018-06-09T01:06:38.681Z,54.38
2018-06-09T01:07:41.762Z,56.88
2018-06-09T01:08:45.145Z,56.80
2018-06-09T01:09:48.219Z,56.13
2018-06-09T01:10:52.656Z,55.65
2018-06-09T01:11:56.088Z,58.00
2018-06-09T01:12:59.491Z,56.80
2018-06-09T01:14:09.267Z,56.55
2018-06-09T01:15:13.699Z,58.13
2018-06-09T01:16:18.710Z,59.85
2018-06-09T01:17:28.767Z,62.05
2018-06-09T01:18:32.156Z,60.75
2018-06-09T01:19:35.543Z,60.60
2018-06-09T01:20:41.095Z,61.28
2018-06-09T01:21:44.526Z,59.88
2018-06-09T01:22:47.920Z,60.65
2018-06-09T01:23:51.315Z,60.12
2018-06-09T01:24:54.691Z,63.60
2018-06-09T01:25:59.686Z,60.28
2018-06-09T01:27:02.834Z,62.75
2018-06-09T01:28:06.233Z,61.18
2018-06-09T01:29:09.624Z,63.63
2018-06-09T01:30:14.530Z,61.75
2018-06-09T01:31:18.693Z,60.15
2018-06-09T01:32:22.119Z,59.00
2018-06-09T01:33:25.500Z,60.98
2018-06-09T01:34:28.885Z,62.13
2018-06-09T01:35:34.529Z,61.83
2018-06-09T01:36:37.943Z,60.43
2018-06-09T01:37:41.356Z,61.13
2018-06-09T01:38:44.935Z,60.05
2018-06-09T01:39:48.319Z,60.80
2018-06-09T01:40:52.216Z,61.80
2018-06-09T01:41:55.643Z,60.52
2018-06-09T01:42:59.051Z,58.63
2018-06-09T01:44:02.431Z,61.37
2018-06-09T01:45:06.808Z,61.15
2018-06-09T01:46:11.914Z,61.00
2018-06-09T01:47:15.315Z,59.20
2018-06-09T01:48:18.410Z,58.90
2018-06-09T01:49:21.839Z,61.60
2018-06-09T01:50:26.256Z,58.33
2018-06-09T01:51:30.322Z,61.20
2018-06-09T01:52:33.703Z,59.60
2018-06-09T01:53:37.127Z,60.12
2018-06-09T01:54:40.560Z,60.08
2018-06-09T01:55:45.999Z,58.52
2018-06-09T01:56:49.406Z,58.50
2018-06-09T01:57:52.795Z,58.05
2018-06-09T01:58:56.247Z,57.20
2018-06-09T01:59:59.627Z,57.93
2018-06-09T02:01:04.254Z,55.98
2018-06-09T02:02:07.663Z,57.45
2018-06-09T02:03:11.041Z,57.83
2018-06-09T02:04:14.459Z,55.67
2018-06-09T02:05:18.827Z,56.18
2018-06-09T02:06:23.117Z,56.92
2018-06-09T02:07:26.527Z,54.48
2018-06-09T02:08:29.918Z,55.05
2018-06-09T02:09:33.307Z,56.15
2018-06-09T02:10:38.588Z,56.23
2018-06-09T02:11:41.995Z,56.55
2018-06-09T02:12:45.075Z,58.05
2018-06-09T02:13:48.472Z,57.03
2018-06-09T02:14:51.899Z,57.35
2018-06-09T02:15:56.831Z,59.53
2018-06-09T02:17:00.256Z,58.28
2018-06-09T02:18:03.640Z,58.38
2018-06-09T02:19:07.029Z,59.35
2018-06-09T02:20:11.552Z,60.48
2018-06-09T02:21:15.941Z,60.08
2018-06-09T02:22:19.347Z,63.63
2018-06-09T02:23:22.735Z,57.80
2018-06-09T02:24:26.131Z,58.45
2018-06-09T02:25:30.638Z,60.67
2018-06-09T02:26:34.053Z,58.50
2018-06-09T02:27:37.447Z,60.25
2018-06-09T02:28:40.972Z,57.83
2018-06-09T02:29:44.073Z,58.33
2018-06-09T02:30:48.725Z,59.25
2018-06-09T02:31:52.160Z,58.30
2018-06-09T02:32:55.257Z,60.17
2018-06-09T02:33:58.647Z,58.80
2018-06-09T02:35:02.039Z,59.10
2018-06-09T02:36:06.960Z,59.83
2018-06-09T02:37:10.380Z,60.12
2018-06-09T02:38:13.775Z,59.77
2018-06-09T02:39:17.175Z,60.20
2018-06-09T02:40:21.062Z,57.88
2018-06-09T02:41:24.859Z,60.35
2018-06-09T02:42:27.959Z,56.50
2018-06-09T02:43:31.038Z,58.85
2018-06-09T02:44:34.229Z,57.45
2018-06-09T02:45:39.338Z,57.90
2018-06-09T02:46:42.759Z,55.95
2018-06-09T02:47:46.148Z,57.03
2018-06-09T02:48:49.555Z,57.70
2018-06-09T02:49:52.936Z,56.77
2018-06-09T02:50:58.282Z,56.70
2018-06-09T02:52:01.716Z,55.30
2018-06-09T02:53:05.099Z,56.10
2018-06-09T02:54:08.487Z,56.18
2018-06-09T02:55:12.958Z,57.00
2018-06-09T02:56:18.448Z,55.88
2018-06-09T02:57:21.887Z,55.28
2018-06-09T02:58:25.280Z,56.68
2018-06-09T02:59:28.759Z,55.78
2018-06-09T03:00:33.152Z,53.85
2018-06-09T03:01:36.602Z,54.00
2018-06-09T03:02:39.988Z,51.60
2018-06-09T03:03:49.924Z,52.60
2018-06-09T03:04:53.343Z,52.60
2018-06-09T03:05:57.886Z,52.35
2018-06-09T03:07:01.352Z,52.65
2018-06-09T03:08:04.772Z,53.00
2018-06-09T03:09:08.543Z,52.93
2018-06-09T03:10:13.070Z,52.05
2018-06-09T03:11:17.355Z,52.80
2018-06-09T03:12:20.839Z,51.23
2018-06-09T03:13:24.228Z,52.65
2018-06-09T03:14:27.611Z,51.63
2018-06-09T03:15:32.037Z,50.75
2018-06-09T03:16:35.159Z,49.60
2018-06-09T03:17:38.583Z,49.63
2018-06-09T03:18:41.999Z,51.60
2018-06-09T03:19:45.391Z,51.35
2018-06-09T03:20:49.994Z,49.85
2018-06-09T03:21:53.427Z,49.75
2018-06-09T03:22:56.823Z,51.02
2018-06-09T03:24:00.215Z,47.88
2018-06-09T03:25:04.223Z,49.18
2018-06-09T03:26:08.677Z,48.87
2018-06-09T03:27:12.088Z,50.70
2018-06-09T03:28:15.499Z,48.87
2018-06-09T03:29:18.881Z,49.00
2018-06-09T03:30:23.379Z,47.80
2018-06-09T03:31:27.959Z,47.43
2018-06-09T03:32:31.094Z,48.17
2018-06-09T03:33:34.491Z,50.00
2018-06-09T03:34:37.912Z,45.63
2018-06-09T03:35:41.801Z,48.02
2018-06-09T03:36:44.896Z,46.95
2018-06-09T03:38:57.799Z,49.15
2018-06-09T03:40:01.219Z,46.20
2018-06-09T03:41:05.624Z,46.85
2018-06-09T03:42:09.027Z,46.73
2018-06-09T03:43:12.442Z,47.17
2018-06-09T03:44:16.098Z,49.20
2018-06-09T03:45:20.550Z,45.95
2018-06-09T03:46:24.853Z,48.38
2018-06-09T03:47:28.251Z,47.40
2018-06-09T03:48:31.647Z,48.60
2018-06-09T03:49:35.051Z,49.08
2018-06-09T03:50:40.030Z,45.15
2018-06-09T03:51:43.442Z,48.33
2018-06-09T03:52:46.868Z,49.00
2018-06-09T03:53:50.351Z,47.90
2018-06-09T03:54:53.768Z,49.42
2018-06-09T03:55:58.224Z,47.53
2018-06-09T03:57:01.648Z,48.15
2018-06-09T03:58:05.036Z,50.92
2018-06-09T03:59:08.423Z,48.87
2018-06-09T04:00:12.929Z,48.08
2018-06-09T04:01:17.441Z,48.05
2018-06-09T04:02:20.972Z,51.88
2018-06-09T04:03:24.352Z,49.55
2018-06-09T04:04:27.779Z,50.55
2018-06-09T04:05:32.612Z,50.25
2018-06-09T04:06:36.043Z,48.30
2018-06-09T04:07:39.488Z,50.23
2018-06-09T04:08:42.887Z,51.37
2018-06-09T04:09:46.299Z,50.40
2018-06-09T04:10:50.957Z,49.95
2018-06-09T04:11:54.387Z,50.38
2018-06-09T04:12:58.727Z,51.48
2018-06-09T04:14:02.111Z,49.45
2018-06-09T04:15:06.475Z,49.50
2018-06-09T04:16:10.855Z,51.33
2018-06-09T04:17:14.279Z,51.75
2018-06-09T04:18:17.667Z,54.60
2018-06-09T04:19:27.535Z,51.73
2018-06-09T04:20:32.780Z,50.52
2018-06-09T04:21:36.183Z,53.23
2018-06-09T04:22:39.571Z,55.48
2018-06-09T04:24:59.215Z,54.48
2018-06-09T04:26:03.705Z,53.68
2018-06-09T04:27:07.128Z,54.65
2018-06-09T04:28:10.495Z,52.17
2018-06-09T04:29:13.883Z,53.25
2018-06-09T04:30:18.220Z,56.75
2018-06-09T04:31:23.435Z,51.63
2018-06-09T04:32:26.870Z,52.67
2018-06-09T04:33:30.267Z,54.65
2018-06-09T04:34:33.664Z,53.78
2018-06-09T04:35:38.073Z,59.42
2018-06-09T04:36:41.210Z,60.70
2018-06-09T04:37:50.835Z,58.08
2018-06-09T04:38:54.227Z,56.23
2018-06-09T04:39:57.647Z,56.50
2018-06-09T04:41:02.508Z,55.05
2018-06-09T04:42:05.943Z,58.08
2018-06-09T04:43:09.328Z,56.75
2018-06-09T04:44:12.724Z,56.45
2018-06-09T04:45:17.185Z,55.28
2018-06-09T04:46:22.468Z,54.80
2018-06-09T04:47:25.879Z,58.38
2018-06-09T04:48:29.375Z,57.27
2018-06-09T04:49:32.767Z,59.40
2018-06-09T04:50:37.596Z,60.65
2018-06-09T04:51:41.015Z,59.73
2018-06-09T04:52:44.423Z,62.98
2018-06-09T04:53:47.848Z,61.77
2018-06-09T04:54:51.236Z,60.40
2018-06-09T04:55:56.093Z,62.48
2018-06-09T04:56:59.526Z,71.42
2018-06-09T04:58:03.118Z,66.25
2018-06-09T04:59:06.520Z,68.17
2018-06-09T05:00:10.934Z,69.72
2018-06-09T05:01:14.812Z,70.87
2018-06-09T05:02:17.930Z,72.10
2018-06-09T05:03:21.034Z,71.60
2018-06-09T05:04:24.435Z,74.92
2018-06-09T05:05:28.797Z,77.90
2018-06-09T05:06:32.228Z,76.28
2018-06-09T05:07:35.620Z,72.25
2018-06-09T05:08:39.075Z,74.32
2018-06-09T05:09:42.508Z,74.45
2018-06-09T05:10:47.041Z,74.72
2018-06-09T05:11:50.486Z,73.40
2018-06-09T05:12:53.930Z,70.22
2018-06-09T05:13:57.304Z,71.50
2018-06-09T05:15:00.401Z,74.17
2018-06-09T05:16:05.142Z,67.92
2018-06-09T05:17:08.603Z,71.47
2018-06-09T05:18:11.683Z,68.33
2018-06-09T05:19:14.790Z,64.58
2018-06-09T05:20:19.246Z,67.00
2018-06-09T05:21:23.032Z,66.28
2018-06-09T05:22:26.139Z,69.50
2018-06-09T05:23:29.531Z,68.92
2018-06-09T05:24:33.199Z,67.12
2018-06-09T05:25:37.641Z,67.62
2018-06-09T05:26:41.043Z,67.20
2018-06-09T05:27:44.445Z,62.27
2018-06-09T05:28:47.843Z,59.85
2018-06-09T05:29:51.379Z,62.23
2018-06-09T05:30:56.569Z,62.38
2018-06-09T05:31:59.977Z,57.98
2018-06-09T05:33:03.371Z,59.00
2018-06-09T05:34:09.967Z,59.83
2018-06-09T05:35:14.403Z,54.25
2018-06-09T05:36:19.356Z,54.42
2018-06-09T05:37:22.768Z,53.92
2018-06-09T05:38:26.155Z,50.92
2018-06-09T05:39:29.539Z,50.03
2018-06-09T05:40:34.652Z,49.42
2018-06-09T05:41:38.075Z,51.28
2018-06-09T05:42:41.471Z,49.25
2018-06-09T05:43:44.855Z,47.03
2018-06-09T05:44:48.243Z,46.55
2018-06-09T05:45:54.561Z,47.20
2018-06-09T05:46:57.976Z,44.90
2018-06-09T05:48:01.374Z,44.75
2018-06-09T05:49:04.755Z,43.35
2018-06-09T05:50:09.228Z,42.62
2018-06-09T05:51:13.730Z,41.95
2018-06-09T05:52:17.147Z,43.92
2018-06-09T05:53:20.541Z,44.73
2018-06-09T05:54:23.943Z,42.75
2018-06-09T05:55:28.401Z,39.53
2018-06-09T05:56:31.856Z,38.13
2018-06-09T05:57:35.265Z,39.90
2018-06-09T05:58:38.651Z,39.65
2018-06-09T05:59:42.051Z,40.03
2018-06-09T06:00:46.461Z,38.85
2018-06-09T06:01:49.883Z,38.50
2018-06-09T06:02:53.283Z,38.20
2018-06-09T06:03:56.709Z,41.18
2018-06-09T06:05:00.104Z,36.30
2018-06-09T06:06:04.592Z,39.25
2018-06-09T06:07:08.008Z,37.10
2018-06-09T06:08:11.090Z,36.28
2018-06-09T06:09:14.186Z,37.55
2018-06-09T06:10:18.673Z,38.20
2018-06-09T06:11:23.252Z,38.10
2018-06-09T06:12:26.675Z,38.67
2018-06-09T06:13:30.083Z,36.23
2018-06-09T06:14:33.463Z,37.70
2018-06-09T06:15:37.831Z,35.28
2018-06-09T06:16:40.932Z,34.15
2018-06-09T06:17:44.325Z,36.13
2018-06-09T06:18:47.532Z,35.28
2018-06-09T06:19:50.578Z,35.70
2018-06-09T06:20:55.972Z,35.55
2018-06-09T06:21:59.098Z,33.70
2018-06-09T06:23:08.610Z,32.93
2018-06-09T06:24:11.995Z,35.48
2018-06-09T06:25:16.316Z,33.83
2018-06-09T06:26:20.808Z,34.18
2018-06-09T06:27:23.910Z,32.45
2018-06-09T06:28:27.009Z,33.83
2018-06-09T06:29:30.395Z,34.00
2018-06-09T06:30:34.779Z,33.02
2018-06-09T06:31:38.202Z,33.02
2018-06-09T06:32:41.604Z,34.35
2018-06-09T06:33:45.056Z,34.33
2018-06-09T06:34:48.451Z,34.18
2018-06-09T06:35:52.811Z,34.83
2018-06-09T06:36:56.239Z,33.75
2018-06-09T06:37:59.628Z,32.48
2018-06-09T06:39:03.263Z,35.25
2018-06-09T06:40:07.701Z,35.85
2018-06-09T06:41:12.080Z,36.55
2018-06-09T06:42:15.499Z,36.50
2018-06-09T06:43:18.578Z,36.03
2018-06-09T06:44:21.979Z,35.83
2018-06-09T06:45:27.437Z,33.90
2018-06-09T06:46:30.867Z,35.88
2018-06-09T06:47:34.259Z,36.90
2018-06-09T06:48:37.634Z,34.88
2018-06-09T06:49:41.031Z,35.75
2018-06-09T06:50:46.042Z,36.17
2018-06-09T06:51:49.179Z,34.95
2018-06-09T06:52:52.563Z,34.67
2018-06-09T06:53:55.948Z,33.90
2018-06-09T06:54:59.359Z,36.25
2018-06-09T06:56:03.806Z,37.08
2018-06-09T06:57:06.916Z,37.98
2018-06-09T06:58:10.310Z,37.13
2018-06-09T06:59:13.697Z,38.35
2018-06-09T07:00:18.712Z,39.70
2018-06-09T07:01:23.491Z,39.42
2018-06-09T07:02:26.587Z,37.80
2018-06-09T07:03:29.666Z,39.60
2018-06-09T07:04:33.111Z,41.92
2018-06-09T07:05:37.661Z,43.75
2018-06-09T07:06:40.754Z,43.38
2018-06-09T07:07:43.836Z,43.60
2018-06-09T07:08:47.225Z,41.18
2018-06-09T07:09:50.607Z,42.38
2018-06-09T07:10:55.237Z,45.48
2018-06-09T07:11:58.646Z,48.17
2018-06-09T07:13:02.032Z,47.43
2018-06-09T07:14:05.415Z,49.03
2018-06-09T07:15:09.804Z,51.63
2018-06-09T07:16:14.200Z,53.25
2018-06-09T07:17:17.666Z,53.68
2018-06-09T07:18:21.064Z,53.60
2018-06-09T07:19:24.495Z,52.03
2018-06-09T07:20:29.044Z,57.85
2018-06-09T07:21:32.479Z,55.08
2018-06-09T07:22:35.871Z,57.62
2018-06-09T07:23:39.267Z,57.27
2018-06-09T07:24:42.663Z,58.52
2018-06-09T07:25:47.674Z,57.67
2018-06-09T07:26:51.235Z,56.80
2018-06-09T07:27:54.611Z,58.50
2018-06-09T07:28:57.687Z,58.38
2018-06-09T07:30:00.771Z,59.33
2018-06-09T07:31:04.512Z,56.20
2018-06-09T07:32:07.939Z,54.58
2018-06-09T07:33:11.331Z,53.08
2018-06-09T07:34:14.735Z,51.13
2018-06-09T07:35:19.320Z,49.25
2018-06-09T07:36:23.468Z,51.98
2018-06-09T07:37:26.911Z,52.25
2018-06-09T07:38:30.301Z,52.05
2018-06-09T07:39:33.695Z,48.17
2018-06-09T07:40:38.001Z,50.83
2018-06-09T07:41:41.097Z,47.98
2018-06-09T07:42:44.518Z,49.95
2018-06-09T07:43:47.908Z,50.00
2018-06-09T07:44:51.315Z,49.27
2018-06-09T07:45:55.944Z,48.65
2018-06-09T07:46:59.383Z,46.75
2018-06-09T07:48:02.832Z,48.17
2018-06-09T07:49:05.916Z,51.37
2018-06-09T07:50:09.805Z,48.90
2018-06-09T07:51:15.416Z,49.03
2018-06-09T07:52:18.819Z,45.60
2018-06-09T07:53:22.234Z,46.58
2018-06-09T07:54:25.628Z,44.50
2018-06-09T07:55:30.075Z,46.23
2018-06-09T07:56:33.491Z,45.80
2018-06-09T07:57:36.887Z,44.70
2018-06-09T07:58:40.300Z,43.35
2018-06-09T07:59:43.695Z,45.28
2018-06-09T08:00:48.633Z,41.53
2018-06-09T08:01:52.047Z,43.78
2018-06-09T08:02:55.532Z,43.98
2018-06-09T08:03:58.955Z,40.33
2018-06-09T08:05:02.414Z,43.05
2018-06-09T08:06:06.833Z,39.23
2018-06-09T08:07:14.787Z,41.00
2018-06-09T08:08:18.195Z,41.15
2018-06-09T08:09:21.621Z,40.40
2018-06-09T08:10:26.483Z,43.25
2018-06-09T08:11:30.331Z,41.60
2018-06-09T08:12:33.723Z,40.20
2018-06-09T08:13:37.126Z,43.52
2018-06-09T08:14:40.532Z,42.13
2018-06-09T08:15:44.919Z,40.25
2018-06-09T08:16:48.343Z,39.35
2018-06-09T08:17:51.779Z,41.05
2018-06-09T08:18:55.173Z,41.53
2018-06-09T08:19:58.588Z,42.62
2018-06-09T08:21:03.025Z,41.00
2018-06-09T08:22:06.443Z,39.35
2018-06-09T08:23:09.851Z,37.75
2018-06-09T08:24:13.236Z,39.33
2018-06-09T08:25:18.079Z,38.88
2018-06-09T08:26:22.662Z,39.73
2018-06-09T08:27:26.059Z,41.05
2018-06-09T08:28:29.462Z,41.55
2018-06-09T08:29:32.860Z,42.03
2018-06-09T08:30:37.178Z,41.30
2018-06-09T08:31:40.286Z,41.95
2018-06-09T08:32:43.368Z,42.20
2018-06-09T08:33:46.458Z,38.23
2018-06-09T08:34:49.842Z,39.40
2018-06-09T08:35:54.367Z,38.70
2018-06-09T08:36:57.776Z,39.85
2018-06-09T08:38:01.161Z,38.15
2018-06-09T08:39:05.947Z,36.55
2018-06-09T08:40:10.338Z,37.60
2018-06-09T08:41:14.882Z,36.77
2018-06-09T08:42:18.315Z,36.60
2018-06-09T08:43:21.711Z,37.95
2018-06-09T08:44:25.120Z,37.30
2018-06-09T08:45:29.518Z,36.53
2018-06-09T08:46:33.044Z,38.60
2018-06-09T08:47:36.519Z,35.60
2018-06-09T08:48:39.908Z,37.63
2018-06-09T08:49:43.311Z,38.08
2018-06-09T08:50:47.644Z,38.85
2018-06-09T08:51:51.081Z,36.80
2018-06-09T08:52:54.463Z,35.65
2018-06-09T08:53:57.847Z,36.53
2018-06-09T08:55:01.232Z,36.68
2018-06-09T08:56:05.699Z,35.28
2018-06-09T08:57:09.153Z,36.45
2018-06-09T08:58:12.533Z,34.75
2018-06-09T08:59:15.950Z,36.35
2018-06-09T09:00:20.388Z,35.98
2018-06-09T09:01:23.985Z,35.80
2018-06-09T09:02:27.396Z,35.92
2018-06-09T09:03:30.787Z,35.03
2018-06-09T09:04:34.180Z,35.78
2018-06-09T09:05:38.740Z,33.78
2018-06-09T09:06:42.171Z,34.00
2018-06-09T09:07:45.551Z,35.00
2018-06-09T09:08:48.935Z,33.40
2018-06-09T09:09:52.315Z,34.60
2018-06-09T09:10:57.512Z,34.58
2018-06-09T09:12:00.649Z,34.85
2018-06-09T09:13:04.035Z,34.98
2018-06-09T09:14:07.427Z,32.95
2018-06-09T09:15:12.307Z,32.48
2018-06-09T09:16:16.736Z,31.95
2018-06-09T09:17:20.259Z,32.28
2018-06-09T09:18:23.647Z,34.15
2018-06-09T09:19:27.037Z,34.58
2018-06-09T09:20:31.547Z,32.38
2018-06-09T09:21:34.975Z,33.13
2018-06-09T09:22:38.058Z,30.20
2018-06-09T09:23:41.142Z,28.92
2018-06-09T09:24:44.222Z,30.75
2018-06-09T09:25:48.053Z,31.33
2018-06-09T09:26:51.472Z,30.75
2018-06-09T09:27:54.867Z,31.70
2018-06-09T09:28:58.255Z,31.23
2018-06-09T09:30:01.648Z,31.42
2018-06-09T09:31:06.200Z,31.57
2018-06-09T09:32:09.674Z,30.43
2018-06-09T09:33:13.027Z,28.25
2018-06-09T09:34:16.427Z,27.80
2018-06-09T09:35:21.000Z,29.50
2018-06-09T09:36:25.043Z,31.07
2018-06-09T09:37:28.469Z,31.55
2018-06-09T09:38:31.855Z,28.32
2018-06-09T09:39:35.251Z,29.80
2018-06-09T09:40:39.588Z,30.57
2018-06-09T09:41:42.718Z,29.92
2018-06-09T09:42:46.100Z,30.50
2018-06-09T09:43:49.484Z,29.75
2018-06-09T09:44:52.878Z,29.12
2018-06-09T09:45:58.355Z,30.30
2018-06-09T09:47:01.784Z,27.35
2018-06-09T09:48:05.217Z,24.30
2018-06-09T09:49:08.609Z,25.90
2018-06-09T09:50:13.615Z,26.82
2018-06-09T09:51:18.258Z,25.15
2018-06-09T09:52:21.410Z,25.72
2018-06-09T09:53:24.843Z,26.02
2018-06-09T09:54:28.244Z,26.55
2018-06-09T09:55:32.779Z,25.27
2018-06-09T09:56:36.209Z,26.50
2018-06-09T09:57:51.071Z,27.93
2018-06-09T09:58:54.483Z,26.05
2018-06-09T09:59:57.646Z,26.30
2018-06-09T10:01:02.244Z,24.55
2018-06-09T10:02:05.700Z,24.18
2018-06-09T10:03:09.363Z,24.75
2018-06-09T10:04:12.803Z,25.48
2018-06-09T10:05:17.939Z,24.18
2018-06-09T10:06:22.434Z,22.32
2018-06-09T10:07:25.808Z,24.55
2018-06-09T10:08:29.204Z,22.90
2018-06-09T10:09:32.607Z,20.23
2018-06-09T10:10:37.044Z,19.48
2018-06-09T10:11:40.448Z,20.43
2018-06-09T10:12:43.839Z,22.58
2018-06-09T10:13:47.240Z,23.62
2018-06-09T10:14:50.651Z,22.07
2018-06-09T10:15:55.077Z,24.18
2018-06-09T10:16:58.537Z,24.50
2018-06-09T10:18:01.928Z,23.02
2018-06-09T10:19:05.503Z,23.18
2018-06-09T10:20:09.798Z,23.02
2018-06-09T10:21:14.353Z,21.45
2018-06-09T10:22:17.794Z,20.52
2018-06-09T10:23:21.193Z,21.17
2018-06-09T10:24:24.615Z,21.12
2018-06-09T10:25:29.008Z,18.95
2018-06-09T10:26:32.427Z,21.70
2018-06-09T10:27:35.831Z,22.48
2018-06-09T10:28:39.240Z,20.82
2018-06-09T10:29:42.660Z,22.60
2018-06-09T10:30:47.156Z,22.35
2018-06-09T10:31:57.061Z,22.10
2018-06-09T10:33:00.463Z,22.10
2018-06-09T10:34:03.875Z,19.80
2018-06-09T10:35:08.264Z,20.45
2018-06-09T10:36:13.145Z,20.80
2018-06-09T10:37:16.690Z,20.00
2018-06-09T10:38:20.055Z,18.75
2018-06-09T10:39:23.467Z,21.60
2018-06-09T10:40:27.817Z,23.32
2018-06-09T10:41:31.247Z,21.35
2018-06-09T10:42:34.639Z,21.52
2018-06-09T10:43:38.028Z,20.77
2018-06-09T10:44:41.419Z,21.15
2018-06-09T10:45:45.948Z,22.60
2018-06-09T10:46:49.354Z,21.97
2018-06-09T10:47:52.735Z,21.17
2018-06-09T10:48:56.131Z,21.25
2018-06-09T10:49:59.247Z,18.32
2018-06-09T10:51:03.713Z,19.32
2018-06-09T10:52:07.123Z,18.52
2018-06-09T10:53:10.503Z,21.05
2018-06-09T10:54:13.586Z,19.42
2018-06-09T10:55:17.434Z,18.80
2018-06-09T10:56:22.783Z,17.48
2018-06-09T10:57:26.189Z,19.05
2018-06-09T10:58:29.271Z,19.73
2018-06-09T10:59:32.350Z,13.78
2018-06-09T11:00:36.880Z,20.50
2018-06-09T11:01:40.304Z,21.00
2018-06-09T11:02:43.687Z,20.10
2018-06-09T11:03:47.070Z,20.35
2018-06-09T11:04:50.471Z,21.12
2018-06-09T11:05:55.446Z,19.87
2018-06-09T11:06:58.871Z,18.95
2018-06-09T11:08:02.267Z,17.80
2018-06-09T11:09:07.006Z,19.15
2018-06-09T11:10:11.518Z,21.37
2018-06-09T11:11:16.164Z,18.90
2018-06-09T11:12:19.582Z,18.98
2018-06-09T11:13:22.993Z,19.37
2018-06-09T11:14:26.376Z,17.80
2018-06-09T11:15:30.746Z,18.32
2018-06-09T11:16:34.192Z,19.02
2018-06-09T11:17:37.575Z,17.15
2018-06-09T11:18:40.960Z,17.95
2018-06-09T11:19:44.336Z,18.20
2018-06-09T11:20:48.757Z,16.95
2018-06-09T11:21:52.180Z,18.45
2018-06-09T11:22:55.571Z,17.37
2018-06-09T11:23:58.970Z,17.95
2018-06-09T11:25:02.363Z,17.15
2018-06-09T11:26:07.711Z,16.87
2018-06-09T11:27:11.169Z,17.77
2018-06-09T11:28:14.563Z,17.77
2018-06-09T11:29:17.943Z,17.70
2018-06-09T11:30:24.258Z,16.07
2018-06-09T11:31:29.091Z,16.75
2018-06-09T11:32:32.503Z,18.12
2018-06-09T11:33:35.903Z,19.27
2018-06-09T11:34:39.300Z,17.57
2018-06-09T11:35:44.485Z,18.27
2018-06-09T11:36:47.904Z,17.05
2018-06-09T11:37:51.303Z,14.03
2018-06-09T11:38:54.691Z,17.57
2018-06-09T11:39:58.079Z,18.02
2018-06-09T11:41:02.431Z,15.75
2018-06-09T11:42:05.852Z,17.70
2018-06-09T11:43:09.259Z,15.20
2018-06-09T11:44:12.644Z,16.05
2018-06-09T11:45:17.064Z,17.02
2018-06-09T11:46:21.529Z,15.15
2018-06-09T11:47:24.935Z,15.63
2018-06-09T11:48:28.343Z,15.03
2018-06-09T11:49:31.743Z,14.75
2018-06-09T11:50:36.097Z,16.65
2018-06-09T11:51:39.504Z,16.67
2018-06-09T11:52:42.901Z,15.35
2018-06-09T11:53:46.311Z,14.07
2018-06-09T11:54:49.723Z,13.95
2018-06-09T11:55:55.033Z,15.85
2018-06-09T11:56:58.447Z,14.53
2018-06-09T11:58:01.851Z,13.88
2018-06-09T11:59:05.395Z,14.28
2018-06-09T12:00:09.789Z,12.90
2018-06-09T12:01:13.505Z,14.07
2018-06-09T12:02:16.928Z,14.23
2018-06-09T12:03:20.324Z,15.78
2018-06-09T12:04:23.739Z,14.28
2018-06-09T12:05:28.194Z,12.35
2018-06-09T12:06:31.943Z,12.68
2018-06-09T12:07:35.331Z,12.73
2018-06-09T12:08:38.747Z,13.62
2018-06-09T12:09:42.167Z,13.80
2018-06-09T12:10:47.019Z,13.80
2018-06-09T12:11:50.137Z,14.55
2018-06-09T12:12:53.538Z,14.28
2018-06-09T12:13:56.940Z,14.28
2018-06-09T12:15:00.391Z,10.80
2018-06-09T12:16:04.102Z,13.88
2018-06-09T12:17:07.581Z,13.85
2018-06-09T12:18:10.976Z,15.32
2018-06-09T12:19:14.519Z,15.40
2018-06-09T12:20:19.157Z,16.15
2018-06-09T12:21:23.644Z,15.18
2018-06-09T12:22:26.855Z,15.53
2018-06-09T12:23:29.961Z,15.28
2018-06-09T12:24:33.355Z,14.93
2018-06-09T12:25:37.858Z,15.85
2018-06-09T12:26:41.283Z,15.03
2018-06-09T12:27:44.687Z,14.90
2018-06-09T12:28:48.095Z,14.87
2018-06-09T12:29:51.199Z,14.25
2018-06-09T12:30:56.356Z,13.43
2018-06-09T12:31:59.782Z,16.25
2018-06-09T12:33:03.244Z,15.65
2018-06-09T12:34:06.603Z,17.80
2018-06-09T12:35:10.980Z,18.20
2018-06-09T12:36:17.291Z,18.02
2018-06-09T12:37:20.699Z,17.10
2018-06-09T12:38:24.095Z,17.73
2018-06-09T12:39:27.225Z,18.10
2018-06-09T12:40:33.136Z,16.67
2018-06-09T12:41:36.559Z,17.02
2018-06-09T12:42:40.032Z,15.83
2018-06-09T12:43:43.436Z,14.03
2018-06-09T12:44:46.847Z,16.32
2018-06-09T12:45:51.260Z,16.40
2018-06-09T12:46:55.171Z,16.42
2018-06-09T12:47:58.250Z,15.72
2018-06-09T12:49:01.648Z,15.83
2018-06-09T12:50:05.871Z,18.75
2018-06-09T12:51:09.754Z,16.60
2018-06-09T12:52:13.193Z,16.07
2018-06-09T12:53:16.603Z,16.97
2018-06-09T12:54:19.991Z,18.42
2018-06-09T12:55:24.389Z,16.05
2018-06-09T12:56:29.279Z,17.82
2018-06-09T12:57:32.685Z,15.38
2018-06-09T12:58:36.088Z,14.98
2018-06-09T12:59:39.476Z,15.40
2018-06-09T13:00:43.978Z,14.38
2018-06-09T13:01:47.387Z,14.55
2018-06-09T13:02:50.531Z,15.58
2018-06-09T13:03:53.963Z,14.50
2018-06-09T13:04:57.359Z,15.95
2018-06-09T13:06:02.110Z,15.98
2018-06-09T13:07:05.450Z,16.12
2018-06-09T13:08:08.883Z,15.53
2018-06-09T13:09:12.295Z,17.27
2018-06-09T13:10:16.877Z,16.00
2018-06-09T13:11:21.252Z,17.70
2018-06-09T13:12:24.791Z,17.35
2018-06-09T13:13:28.212Z,17.32
2018-06-09T13:14:31.607Z,15.95
2018-06-09T13:15:36.068Z,16.02
2018-06-09T13:16:39.483Z,18.85
2018-06-09T13:17:42.884Z,18.85
2018-06-09T13:18:46.319Z,17.55
2018-06-09T13:19:49.703Z,17.37
2018-06-09T13:20:54.774Z,16.95
2018-06-09T13:21:58.199Z,18.07
2018-06-09T13:23:01.584Z,17.00
2018-06-09T13:24:05.011Z,18.80
2018-06-09T13:25:09.459Z,18.93
2018-06-09T13:26:14.017Z,15.43
2018-06-09T13:27:17.163Z,16.40
2018-06-09T13:28:20.652Z,14.75
2018-06-09T13:29:24.092Z,17.07
2018-06-09T13:30:28.637Z,14.90
2018-06-09T13:31:32.103Z,21.73
2018-06-09T13:32:35.493Z,21.23
2018-06-09T13:33:38.578Z,22.05
2018-06-09T13:34:41.991Z,20.65
2018-06-09T13:35:46.543Z,22.50
2018-06-09T13:36:50.104Z,19.95
2018-06-09T13:37:53.501Z,21.23
2018-06-09T13:38:56.895Z,20.30
2018-06-09T13:40:00.304Z,18.95
2018-06-09T13:41:04.786Z,17.62
2018-06-09T13:42:08.202Z,16.07
2018-06-09T13:43:11.623Z,17.85
2018-06-09T13:44:15.020Z,20.60